Flight Track Log - Related Links

Times and Time Zones

All times are in EDT time to prevent confusion due to time zone crossing. See the N2173F flight status page for this flight to view local times or setup timezone preferences in your user account.

Time Position Orientation Groundspeed Altitude Reporting Facility
EDT Latitude Longitude Course Direction KTS MPH feet Rate Location/Type
Fri 12:16:03 PM 28.3000 -81.4333 300° West 80 92 400  Level Orlando TRACON
Fri 12:17:33 PM 28.3167 -81.4667 300° West 81 93 1,000 360 Climbing Orlando TRACON
Fri 12:18:33 PM 28.3333 -81.4833 319° Northwest 82 94 1,300 350 Climbing Orlando TRACON
Fri 12:19:33 PM 28.3500 -81.5000 319° Northwest 83 96 1,700 397 Climbing Orlando TRACON
Fri 12:20:34 PM 28.3667 -81.5167 319° Northwest 85 98 2,100 446 Climbing Orlando TRACON
Fri 12:21:34 PM 28.4000 -81.5333 336° Northwest 87 100 2,600 500 Climbing Orlando TRACON
Fri 12:22:34 PM 28.4167 -81.5500 319° Northwest 78 90 3,100 450 Climbing Orlando TRACON
Fri 12:23:34 PM 28.4333 -81.5667 319° Northwest 84 97 3,500 446 Climbing Orlando TRACON
Fri 12:24:35 PM 28.4500 -81.5833 319° Northwest 94 108 4,000 446 Climbing Orlando TRACON
Fri 12:25:35 PM 28.4667 -81.6000 319° Northwest 95 109 4,400 450 Climbing Orlando TRACON
Fri 12:26:35 PM 28.4833 -81.6167 319° Northwest 94 108 4,900 500 Climbing Orlando TRACON
Fri 12:27:35 PM 28.5000 -81.6500 300° West 96 110 5,400 500 Climbing Orlando TRACON
Fri 12:28:35 PM 28.5333 -81.6667 336° Northwest 93 107 5,900 298 Climbing Orlando TRACON
Fri 12:29:36 PM 28.5500 -81.6833 319° Northwest 121 139 6,000 99 Climbing Orlando TRACON
Fri 12:30:36 PM 28.5833 -81.7167 319° Northwest 131 151 6,100  Climbing Orlando TRACON
Fri 12:31:42 PM 28.6167 -81.7333 336° Northwest 137 158 6,000 -32 Descending Orlando TRACON
Fri 12:33:46 PM 28.6692 -81.7947 314° West 134 154 6,000  Level Jacksonville Center
Fri 12:34:47 PM 28.6922 -81.8275 309° West 139 160 6,000  Level Jacksonville Center
Fri 12:35:48 PM 28.7133 -81.8628 304° West 136 157 6,000  Level Jacksonville Center
Fri 12:36:55 PM 28.7389 -81.9006 308° West 133 153 6,000  Level Jacksonville Center
Fri 12:37:56 PM 28.7619 -81.9333 309° West 133 153 6,000 49 Level Jacksonville Center
Fri 12:38:57 PM 28.7872 -81.9664 311° West 131 151 6,100  Climbing Jacksonville Center
Fri 12:39:58 PM 28.8125 -81.9992 311° West 137 158 6,000  Descending Jacksonville Center
Fri 12:40:59 PM 28.8336 -82.0347 304° West 139 160 6,100  Climbing Jacksonville Center
Fri 12:42:00 PM 28.8506 -82.0772 294° West 137 158 6,000  Descending Jacksonville Center
Fri 12:43:01 PM 28.8697 -82.1125 302° West 136 157 6,100 52 Climbing Jacksonville Center
Fri 12:43:56 PM 28.8867 -82.1456 300° West 134 154 6,100  Level Jacksonville Center
Fri 12:45:03 PM 28.9119 -82.1881 304° West 139 160 6,100 -47 Level Jacksonville Center
Fri 12:46:04 PM 28.9350 -82.2189 311° West 134 154 6,000  Descending Jacksonville Center
Fri 12:47:05 PM 28.9603 -82.2542 309° West 134 154 6,100  Climbing Jacksonville Center
Fri 12:48:06 PM 28.9811 -82.2897 304° West 138 159 6,000  Descending Jacksonville Center
Fri 12:49:07 PM 29.0064 -82.3228 311° West 134 154 6,100 49 Climbing Jacksonville Center
Fri 12:50:08 PM 29.0294 -82.3558 309° West 135 155 6,100 -49 Level Jacksonville Center
Fri 12:51:09 PM 29.0506 -82.3961 301° West 139 160 6,000 -52 Descending Jacksonville Center
Fri 12:52:04 PM 29.0714 -82.4222 312° West 135 155 6,000 103 Level Jacksonville Center
Fri 12:53:05 PM 29.0967 -82.4578 309° West 131 151 6,200 59 Climbing Jacksonville Center
Fri 12:53:46 PM 29.1156 -82.4719 327° Northwest 133 153 6,100 -119 Descending Jacksonville Center
Fri 12:54:46 PM 29.1406 -82.5050 311° West 138 159 6,000  Descending Jacksonville Center
Fri 12:56:08 PM 29.1681 -82.5547 302° West 136 157 6,100  Climbing Jacksonville Center
Fri 12:56:46 PM 29.1825 -82.5786 305° West 138 159 6,000 -61 Descending Jacksonville Center
Fri 12:57:46 PM 29.2036 -82.6119 306° West 138 159 6,000 50 Level Jacksonville Center
Fri 12:58:46 PM 29.2286 -82.6428 313° West 135 155 6,100 -50 Climbing Jacksonville Center
Fri 12:59:46 PM 29.2539 -82.6711 316° Northwest 135 155 5,900 -100 Descending Jacksonville Center
Fri 01:00:46 PM 29.2789 -82.7022 313° West 140 161 5,900 50 Level Jacksonville Center
Fri 01:01:46 PM 29.3019 -82.7378 307° West 140 161 6,000 50 Climbing Jacksonville Center
Fri 01:02:46 PM 29.3228 -82.7736 304° West 134 154 6,000  Level Jacksonville Center
Fri 01:03:46 PM 29.3458 -82.8069 308° West 134 154 6,000 -50 Level Jacksonville Center
Fri 01:04:46 PM 29.3689 -82.8425 307° West 134 154 5,900 50 Descending Jacksonville Center
Fri 01:05:46 PM 29.3939 -82.8736 313° West 134 154 6,100 50 Climbing Jacksonville Center
Fri 01:06:46 PM 29.4231 -82.8997 322° Northwest 134 154 6,000 -50 Descending Jacksonville Center
Fri 01:07:46 PM 29.4481 -82.9331 311° West 134 154 6,000  Level Jacksonville Center
Fri 01:08:46 PM 29.4711 -82.9667 308° West 139 160 6,000 50 Level Jacksonville Center
Fri 01:09:46 PM 29.4939 -83.0022 306° West 133 153 6,100 50 Climbing Jacksonville Center
Fri 01:10:46 PM 29.5147 -83.0311 310° West 133 153 6,100 -50 Level Jacksonville Center
Fri 01:11:46 PM 29.5356 -83.0692 302° West 133 153 6,000 -50 Descending Jacksonville Center
Fri 01:12:46 PM 29.5564 -83.1075 302° West 133 153 6,000 100 Level Jacksonville Center
Fri 01:13:46 PM 29.5814 -83.1386 313° West 133 153 6,200 50 Climbing Jacksonville Center
Fri 01:14:46 PM 29.6086 -83.1697 315° West 133 153 6,100 -100 Descending Jacksonville Center
Fri 01:15:46 PM 29.6378 -83.1983 320° Northwest 138 159 6,000 50 Descending Jacksonville Center
Fri 01:16:46 PM 29.6647 -83.2294 315° West 138 159 6,200  Climbing Jacksonville Center
Fri 01:17:46 PM 29.6792 -83.2703 292° West 138 159 6,000 -150 Descending Jacksonville Center
Fri 01:18:46 PM 29.6917 -83.3133 288° West 143 165 5,900 50 Descending Jacksonville Center
Fri 01:19:46 PM 29.7042 -83.3542 289° West 143 165 6,100 50 Climbing Jacksonville Center
Fri 01:20:46 PM 29.7164 -83.3972 288° West 143 165 6,000 -50 Descending Jacksonville Center
Fri 01:21:46 PM 29.7331 -83.4356 297° West 149 171 6,000  Level Jacksonville Center
Fri 01:22:46 PM 29.7536 -83.4714 303° West 143 165 6,000 50 Level Jacksonville Center
Fri 01:23:46 PM 29.7828 -83.4981 322° Northwest 138 159 6,100  Climbing Jacksonville Center
Fri 01:24:46 PM 29.8139 -83.5222 326° Northwest 132 152 6,000 -150 Descending Jacksonville Center
Fri 01:25:46 PM 29.8472 -83.5414 333° Northwest 132 152 5,800 -100 Descending Jacksonville Center
Fri 01:26:46 PM 29.8722 -83.5753 310° West 132 152 5,800 100 Level Jacksonville Center
Fri 01:27:46 PM 29.8969 -83.6042 315° West 132 152 6,000 100 Climbing Jacksonville Center
Fri 01:28:46 PM 29.9219 -83.6378 311° West 132 152 6,000 -50 Level Jacksonville Center
Fri 01:29:46 PM 29.9425 -83.6739 303° West 132 152 5,900  Descending Jacksonville Center
Fri 01:30:46 PM 29.9592 -83.7125 296° West 132 152 6,000 50 Climbing Jacksonville Center
Fri 01:31:46 PM 29.9797 -83.7511 302° West 137 158 6,000 -50 Level Jacksonville Center
Fri 01:32:46 PM 29.9939 -83.7919 292° West 137 158 5,900 -400 Descending Jacksonville Center
Fri 01:33:46 PM 30.0061 -83.8375 287° West 142 163 5,200 -650 Descending Jacksonville Center
Fri 01:34:46 PM 30.0164 -83.8858 284° West 147 169 4,600 -600 Descending Jacksonville Center
Fri 01:35:46 PM 30.0283 -83.9314 287° West 147 169 4,000 -600 Descending Jacksonville Center
Fri 01:37:00 PM 30.0664 -83.9594 328° Northwest  Level FlightAware Approximate
Fri 01:44:00 PM 30.2457 -84.1714 313° West  Level Estimated
Fri 01:45:00 PM 30.2713 -84.2017 305° West  Level Estimated
Fri 01:46:00 PM 30.2985 -84.2302 318° Northwest  Level FlightAware Approximate
Fri 01:47:00 PM 30.3256 -84.2586 318° Northwest  Level FlightAware Approximate
Fri 01:48:00 PM 30.3514 -84.2968 305° West  Level FlightAware Approximate
Fri 01:49:00 PM 30.3723 -84.3316 305° West  Level FlightAware Approximate
Fri 01:50:00 PM 30.3833 -84.3500 305° West  Level FlightAware Approximate
Fri 01:51:00 PM 30.3967 -84.3509 305° West  Level Estimated
Fri 01:52:00 PM 30.3967 -84.3509 305° West  Level Estimated
Fri 01:53:00 PM 30.3967 -84.3509 305° West  Level Estimated
Fri 01:54:00 PM 30.3967 -84.3509 305° West  Level Estimated
Fri 01:55:00 PM 30.3967 -84.3509 305° West  Level Estimated
Fri 01:56:00 PM 30.3967 -84.3509 305° West  Level Estimated
Fri 01:57:00 PM 30.3967 -84.3509 305° West  Level Estimated
Fri 01:58:00 PM 30.3967 -84.3509 305° West  Level Estimated
Fri 01:59:00 PM 30.3967 -84.3509 305° West  Level Estimated
Fri 02:00:00 PM 30.3967 -84.3509 305° West  Level Estimated

Login

Don't have an account? Register now (free) for customized features, flight alerts, and more!